• Join FlightAware (Why Join?)
  • Login
  • US Flag 
10:37AM EDT


 

Airport Tracker/Info


-or-


 

Live Flight TrackerFlight Track Log ✈ DAL1564 ✈ 17-Jul-2013 ✈ KATL - KRDU

Flight Track Log - Related Links

Times and Time Zones

All times are in EDT time to prevent confusion due to time zone crossing. See the DAL1564 flight status page for this flight to view local times or setup timezone preferences in your user account.

Time Position Orientation Groundspeed Altitude Reporting Facility
EDT Latitude Longitude Course Direction KTS MPH feet Rate Location/Type
01:09PM 33.6333 -84.3833 121° Southeast 184 212 2,400  Level Atlanta TRACON
01:10PM 33.6333 -84.3000 90° East 262 302 4,400 2,700 Climbing Atlanta TRACON
01:11PM 33.7119 -84.0225 118° Southeast  Level FlightAware Approximate
01:11PM 33.6333 -84.2167 90° East 271 312 7,900  Level Atlanta TRACON
01:12PM 33.6592 -83.9018 118° Southeast  Level FlightAware Approximate
01:12PM 33.6189 -84.0264 95° East 313 360 11,800  Level Atlanta Center
01:13PM 33.6065 -83.7814 118° Southeast  Level FlightAware Approximate
01:13PM 33.5958 -83.9042 103° East 357 411 13,900  Level Atlanta Center
01:14PM 33.5488 -83.6643 121° Southeast  Level FlightAware Approximate
01:14PM 33.5747 -83.7869 102° East 364 419 18,000  Level Atlanta Center
01:15PM 33.5536 -83.6725 102° East 358 412 19,900 1,440 Climbing Atlanta Center
01:16PM 33.5575 -83.5478 88° East 353 406 20,900 840 Climbing Atlanta Center
01:17PM 33.5714 -83.4256 82° East 385 443 21,600 1,200 Climbing Atlanta Center
01:18PM 33.5894 -83.2783 82° East 428 493 23,300 1,860 Climbing Atlanta Center
01:19PM 33.6053 -83.1358 82° East 438 504 25,400 2,160 Climbing Atlanta Center
01:20PM 33.6228 -82.9886 82° East 438 504 27,700 1,800 Climbing Atlanta Center
01:21PM 33.6383 -82.8511 82° East 428 493 29,000 600 Climbing Atlanta Center
01:22PM 33.6556 -82.7111 82° East 421 484 29,000  Level Atlanta Center
01:23PM 33.6644 -82.5761 85° East 416 479 29,000  Level Atlanta Center
01:24PM 33.6833 -82.4236 81° East 416 479 29,000  Level Atlanta Center
01:26PM 33.7050 -82.1861 84° East 423 487 29,000  Level Jacksonville Center
01:27PM 33.7231 -82.0486 81° East 423 487 29,000  Level Jacksonville Center
01:28PM 33.7428 -81.9111 80° East 423 487 29,000  Level Jacksonville Center
01:29PM 33.7667 -81.7583 79° East 423 487 29,000  Level Jacksonville Center
01:30PM 33.7842 -81.6206 81° East 418 481 29,000  Level Jacksonville Center
01:31PM 33.8056 -81.4828 79° East 418 481 29,000  Level Jacksonville Center
01:32PM 33.8414 -81.3447 73° East 418 481 29,000  Level Jacksonville Center
01:33PM 33.9089 -81.2261 56° Northeast 412 474 29,000  Level Jacksonville Center
01:34PM 33.9803 -81.1119 53° Northeast 417 480 29,000  Level Jacksonville Center
01:35PM 34.0497 -80.9978 54° Northeast 417 480 29,000  Level Jacksonville Center
01:36PM 34.1019 -80.8711 64° Northeast 417 480 29,000 -240 Level Jacksonville Center
01:37PM 34.1436 -80.7397 69° East 417 480 28,600 -1,080 Descending Jacksonville Center
01:38PM 34.1494 -80.6067 87° East 395 455 26,900 -1,800 Descending Jacksonville Center
01:39PM 34.1636 -80.4608 83° East 412 474 25,000 -1,500 Descending Jacksonville Center
01:40PM 34.1733 -80.3225 85° East 423 487 24,000 -540 Descending Jacksonville Center
01:41PM 34.1869 -80.1739 84° East 429 494 24,000  Level Jacksonville Center
01:42PM 34.1944 -80.0506 86° East 422 486 24,000 -540 Level Jacksonville Center
01:43PM 34.2061 -79.9122 84° East 417 480 23,000 -540 Descending Jacksonville Center
01:44PM 34.2486 -79.7800 69° East 417 480 23,000  Level Jacksonville Center
01:45PM 34.3767 -79.7228 20° North 379 436 23,000  Level Jacksonville Center
01:46PM 34.4944 -79.6806 16° North 397 457 23,000  Level Jacksonville Center
01:48PM 34.6800 -79.6153 16° North 466 536 23,000  Level Washington Center
01:49PM 34.8003 -79.5756 15° North 460 529 23,000 -480 Level Washington Center
01:50PM 34.9142 -79.5356 16° North 437 503 22,100 -1,620 Descending Washington Center
01:51PM 35.0300 -79.5058 12° North 422 486 19,800 -2,100 Descending Washington Center
01:52PM 35.1517 -79.4861 North 406 467 18,000 -1,500 Descending Washington Center
01:53PM 35.2461 -79.4653 10° North 391 450 16,900 -1,620 Descending Washington Center
01:54PM 35.3575 -79.4478 North 373 429 14,800 -1,920 Descending Washington Center
01:55PM 35.4458 -79.4214 14° North 358 412 13,100 -1,320 Descending Washington Center
01:56PM 35.5228 -79.3614 32° Northeast 300 345 12,200 -1,200 Descending Washington Center
01:57PM 35.5669 -79.2894 53° Northeast 284 327 10,800 -1,380 Descending Washington Center
01:58PM 35.5989 -79.1989 67° East 266 306 9,400 -1,200 Descending Washington Center
01:59PM 35.6072 -79.1253 82° East 233 268 8,400 -1,140 Descending Washington Center
02:00PM 35.6381 -79.0703 55° Northeast 186 214 7,200 -1,620 Descending Washington Center
02:01PM 35.6828 -79.0417 27° Northeast 181 208 5,300 -1,620 Descending Washington Center
02:02PM 35.7261 -78.9872 46° Northeast 198 228 4,000 -1,020 Descending Washington Center
02:03PM 35.7586 -78.9450 47° Northeast 191 220 3,300 -780 Descending Washington Center